Time;durP1;ratioP1;P1;durP2;ratioP2;P2;SDS_P1;SDS_P2;PMS_P1;PMS_P2;Temp;Humidity;BMP_temperature;BMP_pressure;BME280_temperature;BME280_humidity;BME280_pressure;Samples;Min_cycle;Max_cycle;Signal;HPM_P1;HPM_P2
2022/09/24 00:01:31;;;;;;;5.63;3.80;;;12.00;99.90;;;10.75;100.00;100510.66;4998617;28;20038;-79
2022/09/24 00:04:03;;;;;;;7.28;4.35;;;12.00;99.90;;;10.79;100.00;100505.59;4990713;28;20038;-78
2022/09/24 00:06:34;;;;;;;4.93;3.40;;;12.10;99.90;;;10.71;99.49;100494.94;5003146;28;20052;-78
2022/09/24 00:09:00;;;;;;;5.30;3.70;;;12.10;99.90;;;10.75;98.60;100497.00;5001050;28;20634;-78
2022/09/24 00:11:27;;;;;;;5.60;3.67;;;12.10;99.90;;;10.83;97.77;100511.41;5002723;28;20076;-78
2022/09/24 00:13:57;;;;;;;5.63;3.53;;;12.20;99.90;;;10.82;97.66;100499.69;5007578;28;20115;-79
2022/09/24 00:16:26;;;;;;;6.45;3.20;;;12.10;99.90;;;10.82;97.68;100496.09;5000415;28;20754;-78
2022/09/24 00:18:53;;;;;;;6.13;3.50;;;12.10;99.90;;;10.69;98.73;100476.06;5006511;28;20022;-78
2022/09/24 00:21:23;;;;;;;5.70;3.70;;;12.10;99.90;;;10.80;97.75;100496.34;5006825;28;20429;-78
2022/09/24 00:23:53;;;;;;;6.10;4.25;;;12.10;99.90;;;10.85;100.00;100495.66;5005798;28;20025;-79
2022/09/24 00:29:07;;;;;;;5.47;3.70;;;12.10;99.90;;;10.91;96.15;100497.53;4983787;28;20074;-79
2022/09/24 00:31:33;;;;;;;;;;;12.20;99.90;;;10.82;96.82;100488.78;4989585;28;20037;-79
2022/09/24 00:33:59;;;;;;;5.60;3.53;;;12.10;99.90;;;10.78;97.50;100491.09;4991257;28;19921;-78
2022/09/24 00:36:26;;;;;;;6.07;4.05;;;12.10;99.90;;;10.81;97.59;100499.91;4996286;28;20040;-77
2022/09/24 00:38:56;;;;;;;5.53;4.18;;;12.10;99.90;;;10.66;97.70;100473.78;5003503;28;20449;-79
2022/09/24 00:41:28;;;;;;;5.80;3.60;;;12.00;99.90;;;10.76;98.85;100489.66;5006005;28;20526;-79
2022/09/24 00:43:55;;;;;;;5.85;4.03;;;12.00;99.90;;;10.74;99.16;100489.88;5004364;28;20118;-79
2022/09/24 00:46:37;;;;;;;6.20;4.13;;;12.00;99.90;;;10.70;99.51;100487.81;5003415;28;20530;-79
2022/09/24 00:49:17;;;;;;;5.00;3.60;;;12.00;99.90;;;10.60;100.00;100480.94;5002694;28;20033;-78
2022/09/24 00:51:49;;;;;;;8.20;4.15;;;12.00;99.90;;;10.62;100.00;100483.47;5007545;28;20041;-79
2022/09/24 00:54:27;;;;;;;5.30;4.15;;;11.90;99.90;;;10.57;100.00;100477.81;5006288;28;20030;-78
2022/09/24 00:56:55;;;;;;;7.07;4.03;;;11.80;99.90;;;10.41;100.00;100463.69;5002389;28;20022;-78
2022/09/24 00:59:23;;;;;;;6.45;4.70;;;11.80;99.90;;;10.41;100.00;100477.31;4996744;28;20038;-78
2022/09/24 01:01:57;;;;;;;5.72;3.90;;;11.80;99.90;;;10.42;100.00;100478.13;4999229;28;20033;-80
2022/09/24 01:04:27;;;;;;;5.35;4.10;;;11.70;99.90;;;10.39;100.00;100471.22;4994571;28;20045;-79
2022/09/24 01:06:55;;;;;;;5.28;4.03;;;11.70;99.90;;;10.32;100.00;100471.25;5004577;28;20042;-79
2022/09/24 01:09:24;;;;;;;5.95;4.25;;;11.70;99.90;;;10.36;100.00;100477.94;5000359;28;20113;-79
2022/09/24 01:12:27;;;;;;;6.05;4.07;;;11.70;99.90;;;10.36;100.00;100477.13;4998146;28;20034;-79
2022/09/24 01:15:24;;;;;;;5.93;4.57;;;11.70;99.90;;;10.28;100.00;100470.03;4985377;28;20489;-79
2022/09/24 01:18:06;;;;;;;6.28;4.80;;;11.70;99.90;;;10.31;100.00;100482.38;4994316;28;20121;-79
2022/09/24 01:21:20;;;;;;;7.13;4.57;;;11.60;99.90;;;10.33;100.00;100472.94;4999166;28;20480;-80
2022/09/24 01:24:27;;;;;;;6.68;4.47;;;11.70;99.90;;;10.34;100.00;100466.41;5001381;28;20034;-78
2022/09/24 01:27:51;;;;;;;5.88;4.40;;;11.70;99.90;;;10.47;100.00;100468.25;4997466;28;20038;-78
2022/09/24 01:30:18;;;;;;;5.38;4.13;;;11.80;99.90;;;10.40;100.00;100461.13;4962481;28;20047;-79
2022/09/24 01:33:02;;;;;;;7.45;4.80;;;11.80;99.90;;;10.49;100.00;100473.50;4996113;28;20057;-80
2022/09/24 01:35:40;;;;;;;6.28;4.45;;;11.80;99.90;;;10.44;100.00;100471.41;4995655;28;20450;-79
2022/09/24 01:38:15;;;;;;;;;;;11.80;99.90;;;10.39;100.00;100456.72;5001025;28;20034;-79
2022/09/24 01:40:45;;;;;;;6.43;4.53;;;11.80;99.90;;;10.44;100.00;100467.84;4983079;28;19932;-79
2022/09/24 01:43:14;;;;;;;5.10;4.05;;;11.80;99.90;;;10.39;100.00;100471.22;4998915;28;20391;-79
2022/09/24 01:45:40;;;;;;;6.93;4.25;;;11.70;99.90;;;10.32;100.00;100464.94;5000537;28;20037;-80
2022/09/24 01:48:07;;;;;;;5.28;3.75;;;11.70;99.90;;;10.38;100.00;100464.09;5004335;28;20172;-79
2022/09/24 01:50:45;;;;;;;7.40;4.32;;;11.70;99.90;;;10.36;100.00;100460.75;4993866;28;20053;-79
2022/09/24 01:53:21;;;;;;;6.25;4.10;;;11.70;99.90;;;10.30;100.00;100459.72;5002278;28;20045;-79
2022/09/24 01:56:04;;;;;;;6.20;4.57;;;11.60;99.90;;;10.31;100.00;100458.69;5006452;28;20034;-80
2022/09/24 01:58:45;;;;;;;6.45;4.68;;;11.60;99.90;;;10.37;100.00;100462.41;4994880;28;20038;-79
2022/09/24 02:01:19;;;;;;;6.65;5.07;;;11.70;99.90;;;10.49;100.00;100465.31;5002964;28;20409;-79
2022/09/24 02:03:55;;;;;;;7.60;4.88;;;11.70;99.90;;;10.52;100.00;100456.69;5001381;28;20053;-79
2022/09/24 02:06:32;;;;;;;7.00;4.70;;;11.80;99.90;;;10.58;100.00;100457.66;4990443;28;20105;-80
2022/09/24 02:08:58;;;;;;;6.38;4.40;;;11.80;99.90;;;10.41;100.00;100425.50;5001553;28;20030;-79
2022/09/24 02:11:26;;;;;;;5.50;4.25;;;11.80;99.90;;;10.48;100.00;100448.09;5001704;28;20029;-79
2022/09/24 02:14:13;;;;;;;7.70;5.53;;;11.80;99.90;;;10.54;100.00;100451.00;5005538;28;20500;-79
2022/09/24 02:16:46;;;;;;;8.85;5.47;;;11.80;99.90;;;10.50;100.00;100439.72;5005950;28;20048;-80
2022/09/24 02:19:18;;;;;;;8.13;5.50;;;11.80;99.90;;;10.56;100.00;100451.59;5000496;28;20045;-80
2022/09/24 02:21:45;;;;;;;8.10;5.88;;;11.80;99.90;;;10.47;100.00;100440.13;5003071;28;20091;-81
2022/09/24 02:24:25;;;;;;;7.85;5.78;;;11.80;99.90;;;10.55;100.00;100461.69;5001051;28;20038;-81
2022/09/24 02:26:51;;;;;;;7.15;5.63;;;11.80;99.90;;;10.52;100.00;100453.97;5005542;28;20034;-80
2022/09/24 02:29:17;;;;;;;8.80;5.80;;;11.80;99.90;;;10.48;100.00;100452.72;5001194;28;20095;-80
2022/09/24 02:31:54;;;;;;;11.25;6.32;;;11.80;99.90;;;10.48;100.00;100456.28;4998992;28;20033;-81
2022/09/24 02:34:30;;;;;;;7.75;5.80;;;11.80;99.90;;;10.39;100.00;100449.41;4986554;28;20026;-81
2022/09/24 02:37:10;;;;;;;8.20;5.78;;;11.70;99.90;;;10.37;100.00;100456.97;5001081;28;20362;-81
2022/09/24 02:39:37;;;;;;;7.72;6.43;;;11.70;99.90;;;10.34;100.00;100441.03;4993556;28;20175;-80
2022/09/24 02:42:05;;;;;;;7.97;5.97;;;11.60;99.90;;;10.31;100.00;100436.88;4984376;28;21004;-80
2022/09/24 02:44:33;;;;;;;8.43;6.70;;;11.70;99.90;;;10.32;100.00;100441.25;5000273;28;20041;-80
2022/09/24 02:46:59;;;;;;;9.35;6.70;;;11.60;99.90;;;10.36;100.00;100444.41;5001296;28;20587;-80
2022/09/24 02:49:25;;;;;;;7.97;5.88;;;11.60;99.90;;;10.31;100.00;100446.91;4995994;28;20401;-81
2022/09/24 02:51:51;;;;;;;7.93;6.25;;;11.60;99.90;;;10.20;100.00;100434.81;4999253;28;20049;-81
2022/09/24 02:54:17;;;;;;;9.13;6.57;;;11.60;99.90;;;10.12;100.00;100437.81;4992996;28;20504;-82
2022/09/24 02:56:42;;;;;;;8.27;6.40;;;11.50;99.90;;;10.13;100.00;100450.38;5000288;28;20017;-81
2022/09/24 02:59:09;;;;;;;8.82;7.20;;;11.50;99.90;;;10.08;100.00;100451.06;4989970;28;20433;-81
2022/09/24 03:01:35;;;;;;;9.02;7.30;;;11.40;99.90;;;9.90;100.00;100433.53;4993810;28;20034;-82
2022/09/24 03:04:02;;;;;;;7.95;6.53;;;11.40;99.90;;;9.99;100.00;100446.91;5001687;28;20397;-81
2022/09/24 03:06:29;;;;;;;8.17;6.37;;;11.40;99.90;;;9.94;100.00;100447.56;4997018;28;20048;-80
2022/09/24 03:08:55;;;;;;;8.40;6.75;;;11.30;99.90;;;9.92;100.00;100447.78;4997690;28;20064;-80
2022/09/24 03:11:21;;;;;;;7.93;6.05;;;11.20;99.90;;;9.74;100.00;100429.44;4992172;28;20038;-79
2022/09/24 03:13:48;;;;;;;8.88;6.40;;;11.20;99.90;;;9.80;100.00;100430.44;4996448;28;20053;-79
2022/09/24 03:16:16;;;;;;;8.43;6.40;;;11.20;99.90;;;9.81;100.00;100437.56;4999825;28;20334;-79
2022/09/24 03:18:42;;;;;;;8.85;6.57;;;11.20;99.90;;;9.83;100.00;100440.91;5005238;28;20129;-80
2022/09/24 03:21:12;;;;;;;8.77;6.40;;;11.20;99.90;;;9.85;100.00;100440.69;5001561;28;20112;-80
2022/09/24 03:23:40;;;;;;;9.82;6.57;;;11.20;99.90;;;9.79;100.00;100435.06;5000822;28;20041;-79
2022/09/24 03:26:07;;;;;;;10.32;7.07;;;11.20;99.90;;;9.77;100.00;100423.53;4988192;28;20033;-79
2022/09/24 03:28:33;;;;;;;11.00;7.47;;;11.10;99.90;;;9.75;100.00;100427.53;4997892;28;20044;-79
2022/09/24 03:30:59;;;;;;;11.13;7.75;;;11.10;99.90;;;9.80;100.00;100435.88;4999638;28;20029;-79
2022/09/24 03:33:30;;;;;;;9.00;7.50;;;11.10;99.90;;;9.73;100.00;100419.59;4988404;28;20087;-79
2022/09/24 03:36:16;;;;;;;10.45;8.05;;;11.10;99.90;;;9.77;100.00;100426.28;4992850;28;20034;-79
2022/09/24 03:38:44;;;;;;;9.88;8.00;;;11.10;99.90;;;9.73;100.00;100419.59;4999758;28;20057;-79
2022/09/24 03:41:12;;;;;;;11.82;8.13;;;11.10;99.90;;;9.74;100.00;100418.53;4994317;28;20068;-80
2022/09/24 03:43:38;;;;;;;9.73;7.93;;;11.10;99.90;;;9.59;100.00;100402.47;4992463;28;20026;-81
2022/09/24 03:46:06;;;;;;;10.32;8.57;;;11.10;99.90;;;9.64;100.00;100410.81;5000594;28;20030;-80
2022/09/24 03:48:34;;;;;;;11.20;8.82;;;11.00;99.90;;;9.60;100.00;100401.41;4998655;28;20120;-78
2022/09/24 03:51:12;;;;;;;12.40;9.23;;;11.00;99.90;;;9.60;100.00;100393.25;4994353;28;20133;-79
2022/09/24 03:53:38;;;;;;;11.70;8.68;;;11.00;99.90;;;9.65;100.00;100408.91;4998918;28;20477;-78
2022/09/24 03:56:06;;;;;;;11.40;8.13;;;11.00;99.90;;;9.63;100.00;100409.16;4995614;28;20029;-79
2022/09/24 03:58:37;;;;;;;12.65;8.85;;;11.00;99.90;;;9.58;100.00;100402.69;4999401;28;20108;-79
2022/09/24 04:01:09;;;;;;;11.27;8.25;;;11.00;99.90;;;9.57;100.00;100404.56;4988474;28;20546;-80
2022/09/24 04:03:36;;;;;;;12.90;9.43;;;10.90;99.90;;;9.59;100.00;100405.19;5004836;28;20030;-79
2022/09/24 04:06:03;;;;;;;14.75;10.27;;;11.00;99.90;;;9.53;100.00;100395.13;4998448;28;20528;-79
2022/09/24 04:08:30;;;;;;;13.85;10.00;;;10.90;99.90;;;9.41;100.00;100383.25;5004470;28;20060;-80
2022/09/24 04:10:56;;;;;;;12.38;9.98;;;10.90;99.90;;;9.53;100.00;100403.31;4998835;28;20042;-80
2022/09/24 04:13:22;;;;;;;12.63;10.48;;;10.90;99.90;;;9.41;100.00;100389.53;4999395;28;20735;-81
2022/09/24 04:15:50;;;;;;;16.23;11.02;;;10.90;99.90;;;9.49;100.00;100400.19;4997903;28;20042;-82
2022/09/24 04:18:17;;;;;;;16.67;10.88;;;10.90;99.90;;;9.30;100.00;100376.59;4998763;28;20030;-81
2022/09/24 04:20:43;;;;;;;12.45;10.13;;;10.80;99.90;;;9.44;100.00;100405.47;5002050;28;20033;-82
2022/09/24 04:23:09;;;;;;;15.48;11.43;;;10.80;99.90;;;9.41;100.00;100399.59;4999863;28;20389;-81
2022/09/24 04:25:36;;;;;;;15.13;11.80;;;10.80;99.90;;;9.35;100.00;100384.97;4995742;28;20034;-81
2022/09/24 04:28:05;;;;;;;16.40;11.10;;;10.80;99.90;;;9.43;100.00;100397.50;4992642;28;20034;-80
2022/09/24 04:30:33;;;;;;;15.65;10.98;;;10.80;99.90;;;9.44;100.00;100399.16;5002448;28;20030;-79
2022/09/24 04:32:59;;;;;;;12.38;10.10;;;10.80;99.90;;;9.46;100.00;100397.91;5001313;28;20037;-78
2022/09/24 04:35:28;;;;;;;11.65;9.30;;;10.80;99.90;;;9.52;100.00;100401.63;4998205;28;20025;-79
2022/09/24 04:37:55;;;;;;;14.07;9.95;;;10.90;99.90;;;9.47;100.00;100388.69;4999274;28;20037;-79
2022/09/24 04:40:22;;;;;;;11.52;9.73;;;10.90;99.90;;;9.38;100.00;100378.25;5000195;28;21100;-79
2022/09/24 04:42:47;;;;;;;13.38;11.05;;;10.90;99.90;;;9.33;100.00;100384.34;4994887;28;20037;-79
2022/09/24 04:45:18;;;;;;;14.18;11.27;;;10.80;99.90;;;9.40;100.00;100387.03;4993514;28;20038;-79
2022/09/24 04:47:46;;;;;;;14.38;10.95;;;10.80;99.90;;;9.41;100.00;100388.72;4996204;28;20492;-81
2022/09/24 04:50:24;;;;;;;14.63;11.32;;;10.80;99.90;;;9.34;100.00;100392.31;5010517;28;20064;-77
2022/09/24 04:52:52;;;;;;;15.68;11.35;;;10.70;99.90;;;9.13;100.00;100357.19;5017613;28;20048;-78
2022/09/24 04:55:22;;;;;;;16.90;13.15;;;10.70;99.90;;;9.39;100.00;100393.53;5012502;28;20034;-78
2022/09/24 04:57:49;;;;;;;18.77;13.65;;;10.70;99.90;;;9.30;100.00;100382.91;5010367;28;20037;-78
2022/09/24 05:00:17;;;;;;;16.90;13.25;;;10.80;99.90;;;9.29;100.00;100377.66;5005956;28;20061;-77
2022/09/24 05:02:44;;;;;;;18.08;13.93;;;10.80;99.90;;;9.33;100.00;100393.34;5013963;28;20026;-77
2022/09/24 05:05:11;;;;;;;19.00;14.60;;;10.80;99.90;;;9.29;100.00;100386.66;5013998;28;20038;-78
2022/09/24 05:07:38;;;;;;;20.75;14.30;;;10.80;99.90;;;9.39;100.00;100401.72;5008687;28;20030;-77
2022/09/24 05:10:05;;;;;;;17.08;13.52;;;10.80;99.90;;;9.42;100.00;100406.72;5010737;28;20041;-77
2022/09/24 05:12:32;;;;;;;21.40;14.40;;;10.80;99.90;;;9.38;100.00;100395.41;4997884;28;20022;-76
2022/09/24 05:14:58;;;;;;;21.73;15.93;;;10.80;99.90;;;9.43;100.00;100402.94;5011000;28;20386;-76
2022/09/24 05:17:24;;;;;;;22.38;15.48;;;10.80;99.90;;;9.26;100.00;100376.19;5004581;28;20030;-77
2022/09/24 05:19:50;;;;;;;22.42;15.70;;;10.80;99.90;;;9.42;100.00;100404.00;5011346;28;20014;-75
2022/09/24 05:22:15;;;;;;;22.67;16.00;;;10.80;99.90;;;9.15;100.00;100364.09;4998956;28;20990;-76
2022/09/24 05:24:41;;;;;;;17.83;13.90;;;10.80;99.90;;;9.24;100.00;100378.28;5008640;28;20040;-77
2022/09/24 05:27:08;;;;;;;18.52;14.20;;;10.80;99.90;;;9.35;100.00;100401.28;4996632;28;20034;-76
2022/09/24 05:29:40;;;;;;;18.77;14.10;;;10.80;99.90;;;9.43;100.00;100397.50;4995712;28;20069;-76
2022/09/24 05:32:09;;;;;;;18.20;14.18;;;10.80;99.90;;;9.38;100.00;100400.84;5002149;28;20430;-75
2022/09/24 05:34:35;;;;;;;19.60;14.20;;;10.80;99.90;;;9.49;100.00;100410.25;4997567;28;20136;-78
2022/09/24 05:37:02;;;;;;;19.73;14.70;;;10.80;99.90;;;9.49;100.00;100402.06;5000011;28;20148;-77
2022/09/24 05:39:28;;;;;;;18.02;13.93;;;10.80;99.90;;;9.51;100.00;100405.41;4994400;28;20097;-77
2022/09/24 05:41:55;;;;;;;17.77;13.77;;;10.90;99.90;;;9.57;100.00;100410.03;4997002;28;20045;-76
2022/09/24 05:44:22;;;;;;;16.10;13.18;;;10.90;99.90;;;9.62;100.00;100406.63;5006644;28;20033;-76
2022/09/24 05:46:50;;;;;;;16.20;12.02;;;11.00;99.90;;;9.56;100.00;100399.34;5006411;28;20145;-76
2022/09/24 05:49:16;;;;;;;;;;;11.00;99.90;;;9.64;100.00;100412.69;4998797;28;20179;-76
2022/09/24 05:51:42;;;;;;;14.98;11.90;;;11.00;99.90;;;9.63;100.00;100408.31;5006985;28;19925;-76
2022/09/24 05:54:10;;;;;;;15.45;12.10;;;11.00;99.90;;;9.74;100.00;100421.25;5000484;28;20437;-75
2022/09/24 05:56:36;;;;;;;;;;;11.10;99.90;;;9.73;100.00;100413.28;5003646;28;20116;-76
2022/09/24 05:59:03;;;;;;;17.98;13.13;;;11.10;99.90;;;9.75;100.00;100412.03;4996298;28;19923;-76
2022/09/24 06:01:29;;;;;;;17.15;13.63;;;11.10;99.90;;;9.84;100.00;100420.78;4988026;28;20030;-77
2022/09/24 06:03:56;;;;;;;17.90;13.48;;;11.20;99.90;;;9.84;100.00;100412.63;4991974;28;20141;-75
2022/09/24 06:06:23;;;;;;;19.02;13.57;;;11.20;99.90;;;9.95;100.00;100424.72;4997784;28;20343;-75
2022/09/24 06:08:49;;;;;;;17.88;14.45;;;11.30;99.90;;;9.97;100.00;100419.88;4998600;28;20018;-77
2022/09/24 06:11:15;;;;;;;19.40;14.43;;;11.30;99.90;;;10.02;100.00;100413.75;5002144;28;20030;-77
2022/09/24 06:13:41;;;;;;;19.48;15.10;;;11.40;99.90;;;10.06;100.00;100417.72;5007504;28;20048;-76
2022/09/24 06:16:09;;;;;;;19.77;15.50;;;11.40;99.90;;;10.17;100.00;100424.34;5002874;28;20043;-77
2022/09/24 06:18:37;;;;;;;;;;;11.50;99.90;;;10.19;100.00;100417.66;4995502;28;20025;-78
2022/09/24 06:21:08;;;;;;;17.83;13.65;;;11.60;99.90;;;10.37;100.00;100426.97;5005108;28;19913;-78
2022/09/24 06:23:35;;;;;;;17.08;12.98;;;11.70;99.90;;;10.48;100.00;100426.28;5003546;28;20030;-78
2022/09/24 06:26:01;;;;;;;16.23;13.07;;;11.70;99.90;;;10.51;100.00;100425.00;5008527;28;20034;-78
2022/09/24 06:28:27;;;;;;;18.35;13.18;;;11.80;99.90;;;10.47;100.00;100410.97;5007249;28;20168;-77
2022/09/24 06:30:53;;;;;;;18.13;13.93;;;11.90;99.90;;;10.65;100.00;100426.56;5010201;28;20038;-78
2022/09/24 06:33:19;;;;;;;20.48;14.63;;;12.00;99.90;;;10.72;100.00;100418.31;5013807;28;20022;-78
2022/09/24 06:35:46;;;;;;;17.90;13.55;;;12.00;99.90;;;10.85;100.00;100432.88;5017729;28;20038;-78
2022/09/24 06:38:16;;;;;;;19.15;13.63;;;12.20;99.90;;;10.90;100.00;100441.28;5020177;28;20045;-77
2022/09/24 06:40:45;;;;;;;16.85;12.30;;;12.20;99.90;;;11.00;100.00;100444.31;5010728;28;20029;-77
2022/09/24 06:43:12;;;;;;;15.57;12.80;;;12.30;99.90;;;11.07;100.00;100434.16;5012666;28;20039;-77
2022/09/24 06:45:41;;;;;;;15.05;12.00;;;12.40;99.90;;;11.28;100.00;100444.88;4994859;28;20034;-77
2022/09/24 06:48:13;;;;;;;14.95;11.35;;;12.60;99.90;;;11.41;100.00;100441.19;5004574;28;20098;-78
2022/09/24 06:50:42;;;;;;;17.48;12.30;;;12.70;99.90;;;11.57;100.00;100447.94;5001302;28;20060;-76
2022/09/24 06:53:10;;;;;;;14.32;10.82;;;12.80;99.90;;;11.66;100.00;100450.09;4993633;28;20122;-76
2022/09/24 06:55:38;;;;;;;15.20;10.75;;;13.00;99.90;;;11.89;100.00;100447.72;4990939;28;20437;-77
2022/09/24 06:58:22;;;;;;;13.02;11.05;;;13.20;99.90;;;11.97;100.00;100446.59;4995454;28;20499;-77
2022/09/24 07:00:57;;;;;;;12.68;10.40;;;13.30;99.90;;;12.00;100.00;100443.38;4989591;28;20022;-77
2022/09/24 07:03:24;;;;;;;14.00;10.55;;;13.30;99.90;;;12.13;100.00;100456.88;5000299;28;20034;-77
2022/09/24 07:05:50;;;;;;;16.92;10.98;;;13.40;99.90;;;12.18;100.00;100448.81;5005186;28;20048;-78
2022/09/24 07:08:16;;;;;;;13.38;10.43;;;13.40;99.90;;;12.29;100.00;100449.09;4999717;28;20116;-77
2022/09/24 07:10:44;;;;;;;14.60;11.10;;;13.50;99.90;;;12.39;100.00;100443.06;4996823;28;20081;-77
2022/09/24 07:13:12;;;;;;;14.27;10.88;;;13.60;99.90;;;12.54;100.00;100437.97;5008313;28;20034;-77
2022/09/24 07:15:39;;;;;;;14.50;11.18;;;13.70;99.90;;;12.60;100.00;100428.00;5014671;28;20034;-77
2022/09/24 07:18:05;;;;;;;15.85;11.73;;;13.80;99.90;;;12.74;100.00;100437.66;5007658;28;20104;-77
2022/09/24 07:20:32;;;;;;;13.90;10.57;;;13.90;99.90;;;12.93;100.00;100435.66;4998291;28;20034;-76
2022/09/24 07:22:58;;;;;;;13.27;11.27;;;14.10;99.90;;;12.97;100.00;100433.25;4991544;28;20044;-77
2022/09/24 07:25:24;;;;;;;15.98;10.85;;;14.20;99.90;;;12.86;99.03;100421.22;4993371;28;20299;-75
2022/09/24 07:27:50;;;;;;;14.18;10.85;;;14.20;99.90;;;13.06;100.00;100442.78;4992431;28;20030;-78
2022/09/24 07:30:16;;;;;;;14.32;11.27;;;14.20;99.90;;;13.07;96.61;100443.59;4992641;28;20485;-77
2022/09/24 07:32:42;;;;;;;15.68;11.35;;;14.30;99.90;;;12.98;98.13;100432.19;4997480;28;20515;-78
2022/09/24 07:35:08;;;;;;;15.52;11.77;;;14.30;99.90;;;13.00;100.00;100440.16;4994297;28;20034;-76
2022/09/24 07:37:34;;;;;;;16.75;11.48;;;14.30;99.90;;;13.07;100.00;100433.50;4993889;28;20300;-77
2022/09/24 07:40:00;;;;;;;14.98;11.48;;;14.30;99.90;;;13.22;100.00;100443.13;4999903;28;20321;-77
2022/09/24 07:42:27;;;;;;;15.73;11.45;;;14.40;99.90;;;13.34;100.00;100448.59;5000217;28;20045;-78
2022/09/24 07:44:55;;;;;;;13.00;11.27;;;14.60;99.90;;;13.42;100.00;100444.66;4991417;28;20026;-78
2022/09/24 07:47:21;;;;;;;14.18;11.52;;;14.60;99.90;;;13.47;100.00;100450.28;4996981;28;20041;-77
2022/09/24 07:49:47;;;;;;;14.18;11.30;;;14.70;99.90;;;13.45;100.00;100438.72;4990251;28;20045;-76
2022/09/24 07:52:13;;;;;;;14.65;11.48;;;14.70;99.90;;;13.50;100.00;100436.09;4988554;28;20056;-76
2022/09/24 07:54:39;;;;;;;13.25;10.63;;;14.70;99.90;;;13.41;99.49;100438.38;4995137;28;20038;-77
2022/09/24 07:57:14;;;;;;;16.38;10.02;;;14.70;99.90;;;13.40;100.00;100438.59;4991298;28;20029;-75
2022/09/24 07:59:40;;;;;;;16.25;10.57;;;14.70;99.90;;;13.39;100.00;100443.22;4999153;28;20026;-76
2022/09/24 08:02:15;;;;;;;13.10;10.25;;;14.80;99.90;;;13.56;99.65;100446.09;4994637;28;20084;-76
2022/09/24 08:04:43;;;;;;;14.80;9.98;;;14.80;99.90;;;13.57;97.88;100442.28;4997807;28;20045;-77
2022/09/24 08:07:12;;;;;;;13.98;10.95;;;14.90;99.90;;;13.68;99.76;100445.22;4995125;28;20409;-75
2022/09/24 08:09:39;;;;;;;12.90;9.48;;;15.00;99.90;;;13.92;98.25;100443.22;4995348;28;20456;-75
2022/09/24 08:12:11;;;;;;;14.02;9.77;;;15.10;99.90;;;14.15;96.88;100436.84;5002488;28;20042;-76
2022/09/24 08:14:37;;;;;;;12.07;9.30;;;15.40;99.90;;;14.37;95.39;100455.34;5006840;28;20477;-75
2022/09/24 08:17:02;;;;;;;13.05;10.30;;;15.50;99.90;;;14.46;91.88;100464.00;5002341;28;20029;-77
2022/09/24 08:19:29;;;;;;;11.43;9.02;;;15.60;99.90;;;14.51;91.69;100459.41;5010039;28;20397;-78
2022/09/24 08:21:56;;;;;;;13.40;9.68;;;15.70;99.90;;;14.44;91.68;100460.66;4999740;28;20038;-78
2022/09/24 08:24:22;;;;;;;13.15;9.90;;;15.70;99.90;;;14.40;92.66;100449.34;5004936;28;20423;-77
2022/09/24 08:26:51;;;;;;;13.68;9.98;;;15.70;99.90;;;14.31;88.38;100457.16;5005988;28;20034;-77
2022/09/24 08:29:19;;;;;;;13.98;9.95;;;15.70;99.90;;;14.35;93.28;100455.56;4991623;28;20046;-76
2022/09/24 08:31:45;;;;;;;13.32;10.02;;;15.70;99.90;;;14.24;86.84;100471.00;4995195;28;20037;-77
2022/09/24 08:34:10;;;;;;;13.27;9.85;;;15.60;99.90;;;14.22;88.79;100473.16;4998830;28;20030;-77
2022/09/24 08:36:36;;;;;;;14.43;10.00;;;15.60;99.90;;;14.25;88.82;100460.88;5019022;28;20034;-77
2022/09/24 08:39:02;;;;;;;13.93;9.88;;;15.60;99.90;;;14.35;87.55;100468.47;5011598;28;20033;-77
2022/09/24 08:41:56;;;;;;;14.63;10.10;;;15.60;99.90;;;14.48;92.49;100468.16;5018966;28;20034;-77
2022/09/24 08:47:47;;;;;;;14.40;10.35;;;15.80;99.90;;;14.49;91.75;100464.31;5008775;28;20084;-78
2022/09/24 08:50:22;;;;;;;13.57;10.38;;;15.80;99.90;;;14.51;92.66;100473.13;5009206;28;20064;-77
2022/09/24 08:53:30;;;;;;;15.30;10.32;;;15.80;99.90;;;14.29;87.30;100461.19;5011102;28;20109;-78
2022/09/24 08:56:00;;;;;;;13.52;8.95;;;15.70;99.90;;;14.15;85.46;100469.75;5007006;28;20386;-78
2022/09/24 08:58:56;;;;;;;14.60;9.98;;;15.60;99.90;;;14.12;86.89;100470.25;4994348;28;20030;-78
2022/09/24 09:01:56;;;;;;;14.93;10.38;;;15.50;99.90;;;14.23;92.14;100461.13;5008276;28;20336;-78
2022/09/24 09:05:07;;;;;;;13.80;10.33;;;15.60;99.90;;;14.36;91.20;100481.13;4985782;28;20130;-79
2022/09/24 09:07:59;;;;;;;16.73;10.52;;;15.70;99.90;;;14.47;86.20;100488.44;4995940;28;20118;-78
2022/09/24 09:10:35;;;;;;;15.30;10.40;;;15.80;99.90;;;14.74;89.35;100487.84;4993551;28;20546;-78
2022/09/24 09:13:20;;;;;;;12.85;9.55;;;15.90;99.90;;;14.55;80.13;100480.88;5002844;28;20425;-80
2022/09/24 09:16:02;;;;;;;15.05;9.70;;;16.00;99.90;;;14.57;82.15;100490.53;5007485;28;20061;-80
2022/09/24 09:18:44;;;;;;;12.93;9.48;;;16.00;99.90;;;14.84;81.77;100497.31;4998323;28;20023;-77
2022/09/24 09:21:36;;;;;;;13.35;8.80;;;16.10;99.90;;;15.06;80.08;100489.19;5009554;28;20063;-80
2022/09/24 09:24:03;;;;;;;13.05;9.82;;;16.30;99.90;;;15.02;79.28;100488.03;5007560;28;20055;-81
2022/09/24 09:26:30;;;;;;;11.52;9.32;;;16.30;99.90;;;15.07;79.46;100482.59;4992630;28;20042;-77
2022/09/24 09:29:00;;;;;;;12.00;9.18;;;16.40;99.90;;;15.07;79.38;100483.41;4998329;28;20084;-77
2022/09/24 09:31:51;;;;;;;12.57;9.55;;;16.40;99.90;;;15.08;78.47;100482.34;4995061;28;20038;-78
2022/09/24 09:34:52;;;;;;;13.65;9.40;;;16.50;99.90;;;15.11;77.81;100470.03;4994562;28;20030;-76
2022/09/24 09:37:39;;;;;;;12.40;9.05;;;16.50;99.90;;;15.48;76.48;100512.59;5004129;28;20121;-77
2022/09/24 09:40:41;;;;;;;14.07;10.55;;;16.70;99.90;;;15.32;77.40;100509.63;5000895;28;20042;-78
2022/09/24 09:43:14;;;;;;;13.82;10.63;;;16.70;99.90;;;15.32;77.09;100492.31;4998443;28;20481;-76
2022/09/24 09:46:14;;;;;;;15.40;10.60;;;16.60;99.90;;;15.37;78.19;100490.44;4994766;28;20177;-78
2022/09/24 09:48:58;;;;;;;;;;;16.60;99.90;;;15.65;77.25;100490.56;4994439;28;20026;-75
2022/09/24 09:51:25;;;;;;;13.45;10.48;;;16.80;99.90;;;15.89;77.86;100502.16;4993625;28;19919;-76
2022/09/24 09:54:01;;;;;;;15.32;10.30;;;17.00;99.90;;;15.92;74.96;100501.69;5000564;28;20053;-77
2022/09/24 09:56:43;;;;;;;15.13;10.57;;;17.20;99.90;;;16.36;72.28;100506.31;5000903;28;20366;-78
2022/09/24 09:59:12;;;;;;;12.07;9.20;;;17.50;99.90;;;16.76;71.31;100506.13;5000428;28;20370;-77
2022/09/24 10:01:48;;;;;;;13.73;10.40;;;17.80;99.10;;;17.15;70.20;100499.56;4997510;28;20122;-77
2022/09/24 10:04:40;;;;;;;15.38;9.52;;;18.20;98.40;;;17.19;65.88;100503.44;4991637;28;20038;-76
2022/09/24 10:07:15;;;;;;;13.70;9.40;;;18.40;95.30;;;17.21;65.38;100504.84;5002762;28;20030;-76
2022/09/24 10:09:43;;;;;;;12.60;9.65;;;18.50;94.50;;;17.37;63.78;100497.50;4994899;28;20061;-77
2022/09/24 10:12:21;;;;;;;13.13;10.05;;;18.70;93.50;;;17.62;62.73;100490.47;4996036;28;20037;-78
2022/09/24 10:15:25;;;;;;;11.60;8.67;;;18.90;93.00;;;17.95;62.54;100493.94;5002053;28;20511;-78
2022/09/24 10:17:54;;;;;;;11.63;9.18;;;19.10;92.60;;;18.06;61.75;100477.47;4964723;28;20451;-79
2022/09/24 10:20:51;;;;;;;12.93;10.00;;;19.50;92.70;;;17.62;61.38;100490.47;4960464;28;20458;-78
2022/09/24 10:23:31;;;;;;;14.98;9.60;;;19.20;91.50;;;17.25;63.08;100444.53;4987807;28;20140;-80
2022/09/24 10:26:01;;;;;;;13.57;9.45;;;19.00;92.00;;;17.62;63.84;100482.22;5003138;28;20057;-80
2022/09/24 10:31:29;;;;;;;13.40;9.60;;;19.10;91.40;;;17.52;62.89;100482.97;4989550;28;20058;-82
2022/09/24 10:33:59;;;;;;;13.60;10.02;;;18.80;92.10;;;17.49;62.99;100491.78;5001735;28;20038;-78